sensor_id;sensor_type;location;lat;lon;timestamp;temperature;humidity
19813;DHT22;10066;48.108;11.448;2023-09-12T00:00:28;17.40;99.90
19813;DHT22;10066;48.108;11.448;2023-09-12T00:02:55;17.40;99.90
19813;DHT22;10066;48.108;11.448;2023-09-12T00:05:22;17.40;99.90
19813;DHT22;10066;48.108;11.448;2023-09-12T00:07:52;17.40;99.90
19813;DHT22;10066;48.108;11.448;2023-09-12T00:10:19;17.30;99.90
19813;DHT22;10066;48.108;11.448;2023-09-12T00:12:46;17.30;99.90
19813;DHT22;10066;48.108;11.448;2023-09-12T00:15:15;17.30;99.90
19813;DHT22;10066;48.108;11.448;2023-09-12T00:17:42;17.30;99.90
19813;DHT22;10066;48.108;11.448;2023-09-12T00:20:09;17.20;99.90
19813;DHT22;10066;48.108;11.448;2023-09-12T00:22:36;17.20;99.90
19813;DHT22;10066;48.108;11.448;2023-09-12T00:25:04;17.10;99.90
19813;DHT22;10066;48.108;11.448;2023-09-12T00:27:31;17.10;99.90
19813;DHT22;10066;48.108;11.448;2023-09-12T00:29:58;17.10;99.90
19813;DHT22;10066;48.108;11.448;2023-09-12T00:32:26;17.10;99.90
19813;DHT22;10066;48.108;11.448;2023-09-12T00:34:53;17.00;99.90
19813;DHT22;10066;48.108;11.448;2023-09-12T00:37:20;17.00;99.90
19813;DHT22;10066;48.108;11.448;2023-09-12T00:39:47;17.00;99.90
19813;DHT22;10066;48.108;11.448;2023-09-12T00:42:14;17.00;99.90
19813;DHT22;10066;48.108;11.448;2023-09-12T00:44:41;16.90;99.90
19813;DHT22;10066;48.108;11.448;2023-09-12T00:47:08;16.90;99.90
19813;DHT22;10066;48.108;11.448;2023-09-12T00:49:38;16.80;99.90
19813;DHT22;10066;48.108;11.448;2023-09-12T00:52:06;16.80;99.90
19813;DHT22;10066;48.108;11.448;2023-09-12T00:54:34;16.80;99.90
19813;DHT22;10066;48.108;11.448;2023-09-12T00:57:01;16.70;99.90
19813;DHT22;10066;48.108;11.448;2023-09-12T00:59:28;16.70;99.90
19813;DHT22;10066;48.108;11.448;2023-09-12T01:01:55;16.70;99.90
19813;DHT22;10066;48.108;11.448;2023-09-12T01:04:23;16.60;99.90
19813;DHT22;10066;48.108;11.448;2023-09-12T01:06:52;16.60;99.90
19813;DHT22;10066;48.108;11.448;2023-09-12T01:09:19;16.60;99.90
19813;DHT22;10066;48.108;11.448;2023-09-12T01:11:46;16.60;99.90
19813;DHT22;10066;48.108;11.448;2023-09-12T01:14:13;16.60;99.90
19813;DHT22;10066;48.108;11.448;2023-09-12T01:16:41;16.50;99.90
19813;DHT22;10066;48.108;11.448;2023-09-12T01:19:08;16.50;99.90
19813;DHT22;10066;48.108;11.448;2023-09-12T01:21:46;16.50;99.90
19813;DHT22;10066;48.108;11.448;2023-09-12T01:27:38;16.40;99.90
19813;DHT22;10066;48.108;11.448;2023-09-12T01:30:08;16.40;99.90
19813;DHT22;10066;48.108;11.448;2023-09-12T01:32:35;16.40;99.90
19813;DHT22;10066;48.108;11.448;2023-09-12T01:35:03;16.40;99.90
19813;DHT22;10066;48.108;11.448;2023-09-12T01:37:30;16.40;99.90
19813;DHT22;10066;48.108;11.448;2023-09-12T01:39:57;16.30;99.90
19813;DHT22;10066;48.108;11.448;2023-09-12T01:42:27;16.30;99.90
19813;DHT22;10066;48.108;11.448;2023-09-12T01:44:58;16.30;99.90
19813;DHT22;10066;48.108;11.448;2023-09-12T01:47:26;16.30;99.90
19813;DHT22;10066;48.108;11.448;2023-09-12T01:49:56;16.20;99.90
19813;DHT22;10066;48.108;11.448;2023-09-12T01:52:25;16.20;99.90
19813;DHT22;10066;48.108;11.448;2023-09-12T01:54:53;16.20;99.90
19813;DHT22;10066;48.108;11.448;2023-09-12T01:57:20;16.20;99.90
19813;DHT22;10066;48.108;11.448;2023-09-12T01:59:48;16.20;99.90
19813;DHT22;10066;48.108;11.448;2023-09-12T02:02:17;16.20;99.90
19813;DHT22;10066;48.108;11.448;2023-09-12T02:04:51;16.10;99.90
19813;DHT22;10066;48.108;11.448;2023-09-12T02:07:18;16.10;99.90
19813;DHT22;10066;48.108;11.448;2023-09-12T02:09:45;16.10;99.90
19813;DHT22;10066;48.108;11.448;2023-09-12T02:12:12;16.10;99.90
19813;DHT22;10066;48.108;11.448;2023-09-12T02:14:39;16.10;99.90
19813;DHT22;10066;48.108;11.448;2023-09-12T02:17:06;16.10;99.90
19813;DHT22;10066;48.108;11.448;2023-09-12T02:19:34;16.10;99.90
19813;DHT22;10066;48.108;11.448;2023-09-12T02:22:01;16.10;99.90
19813;DHT22;10066;48.108;11.448;2023-09-12T02:24:28;16.10;99.90
19813;DHT22;10066;48.108;11.448;2023-09-12T02:26:55;16.10;99.90
19813;DHT22;10066;48.108;11.448;2023-09-12T02:29:22;16.00;99.90
19813;DHT22;10066;48.108;11.448;2023-09-12T02:31:49;16.00;99.90
19813;DHT22;10066;48.108;11.448;2023-09-12T02:34:15;16.00;99.90
19813;DHT22;10066;48.108;11.448;2023-09-12T02:36:44;16.00;99.90
19813;DHT22;10066;48.108;11.448;2023-09-12T02:39:11;16.00;99.90
19813;DHT22;10066;48.108;11.448;2023-09-12T02:41:38;15.90;99.90
19813;DHT22;10066;48.108;11.448;2023-09-12T02:44:05;15.90;99.90
19813;DHT22;10066;48.108;11.448;2023-09-12T02:46:32;15.90;99.90
19813;DHT22;10066;48.108;11.448;2023-09-12T02:48:59;15.90;99.90
19813;DHT22;10066;48.108;11.448;2023-09-12T02:51:27;15.90;99.90
19813;DHT22;10066;48.108;11.448;2023-09-12T02:53:55;15.80;99.90
19813;DHT22;10066;48.108;11.448;2023-09-12T02:56:22;15.80;99.90
19813;DHT22;10066;48.108;11.448;2023-09-12T02:58:49;15.80;99.90
19813;DHT22;10066;48.108;11.448;2023-09-12T03:01:16;15.80;99.90
19813;DHT22;10066;48.108;11.448;2023-09-12T03:03:44;15.80;99.90
19813;DHT22;10066;48.108;11.448;2023-09-12T03:06:12;15.70;99.90
19813;DHT22;10066;48.108;11.448;2023-09-12T03:08:39;15.70;99.90
19813;DHT22;10066;48.108;11.448;2023-09-12T03:11:08;15.70;99.90
19813;DHT22;10066;48.108;11.448;2023-09-12T03:13:36;15.70;99.90
19813;DHT22;10066;48.108;11.448;2023-09-12T03:16:03;15.70;99.90
19813;DHT22;10066;48.108;11.448;2023-09-12T03:18:30;15.60;99.90
19813;DHT22;10066;48.108;11.448;2023-09-12T03:20:57;15.70;99.90
19813;DHT22;10066;48.108;11.448;2023-09-12T03:23:24;15.60;99.90
19813;DHT22;10066;48.108;11.448;2023-09-12T03:25:51;15.60;99.90
19813;DHT22;10066;48.108;11.448;2023-09-12T03:28:20;15.60;99.90
19813;DHT22;10066;48.108;11.448;2023-09-12T03:30:47;15.60;99.90
19813;DHT22;10066;48.108;11.448;2023-09-12T03:33:14;15.50;99.90
19813;DHT22;10066;48.108;11.448;2023-09-12T03:35:43;15.50;99.90
19813;DHT22;10066;48.108;11.448;2023-09-12T03:38:10;15.50;99.90
19813;DHT22;10066;48.108;11.448;2023-09-12T03:40:37;15.50;99.90
19813;DHT22;10066;48.108;11.448;2023-09-12T03:43:04;15.50;99.90
19813;DHT22;10066;48.108;11.448;2023-09-12T03:45:32;15.50;99.90
19813;DHT22;10066;48.108;11.448;2023-09-12T03:47:59;15.40;99.90
19813;DHT22;10066;48.108;11.448;2023-09-12T03:50:26;15.40;99.90
19813;DHT22;10066;48.108;11.448;2023-09-12T03:52:53;15.40;99.90
19813;DHT22;10066;48.108;11.448;2023-09-12T03:55:20;15.40;99.90
19813;DHT22;10066;48.108;11.448;2023-09-12T03:57:47;15.30;99.90
19813;DHT22;10066;48.108;11.448;2023-09-12T04:00:15;15.30;99.90
19813;DHT22;10066;48.108;11.448;2023-09-12T04:02:43;15.30;99.90
19813;DHT22;10066;48.108;11.448;2023-09-12T04:05:10;15.30;99.90
19813;DHT22;10066;48.108;11.448;2023-09-12T04:07:37;15.30;99.90
19813;DHT22;10066;48.108;11.448;2023-09-12T04:10:05;15.30;99.90
19813;DHT22;10066;48.108;11.448;2023-09-12T04:12:32;15.20;99.90
19813;DHT22;10066;48.108;11.448;2023-09-12T04:14:59;15.20;99.90
19813;DHT22;10066;48.108;11.448;2023-09-12T04:17:26;15.20;99.90
19813;DHT22;10066;48.108;11.448;2023-09-12T04:19:54;15.20;99.90
19813;DHT22;10066;48.108;11.448;2023-09-12T04:22:21;15.20;99.90
19813;DHT22;10066;48.108;11.448;2023-09-12T04:24:48;15.20;99.90
19813;DHT22;10066;48.108;11.448;2023-09-12T04:27:15;15.20;99.90
19813;DHT22;10066;48.108;11.448;2023-09-12T04:29:41;15.10;99.90
19813;DHT22;10066;48.108;11.448;2023-09-12T04:32:09;15.10;99.90
19813;DHT22;10066;48.108;11.448;2023-09-12T04:34:36;15.10;99.90
19813;DHT22;10066;48.108;11.448;2023-09-12T04:37:07;15.10;99.90
19813;DHT22;10066;48.108;11.448;2023-09-12T04:39:34;15.10;99.90
19813;DHT22;10066;48.108;11.448;2023-09-12T04:42:01;15.10;99.90
19813;DHT22;10066;48.108;11.448;2023-09-12T04:44:30;15.10;99.90
19813;DHT22;10066;48.108;11.448;2023-09-12T04:46:57;15.10;99.90
19813;DHT22;10066;48.108;11.448;2023-09-12T04:49:24;15.10;99.90
19813;DHT22;10066;48.108;11.448;2023-09-12T04:51:51;15.10;99.90
19813;DHT22;10066;48.108;11.448;2023-09-12T04:54:19;15.10;99.90
19813;DHT22;10066;48.108;11.448;2023-09-12T04:56:46;15.10;99.90
19813;DHT22;10066;48.108;11.448;2023-09-12T04:59:13;15.10;99.90
19813;DHT22;10066;48.108;11.448;2023-09-12T05:01:40;15.10;99.90
19813;DHT22;10066;48.108;11.448;2023-09-12T05:04:07;15.20;99.90
19813;DHT22;10066;48.108;11.448;2023-09-12T05:06:35;15.20;99.90
19813;DHT22;10066;48.108;11.448;2023-09-12T05:09:02;15.20;99.90
19813;DHT22;10066;48.108;11.448;2023-09-12T05:11:32;15.20;99.90
19813;DHT22;10066;48.108;11.448;2023-09-12T05:14:00;15.20;99.90
19813;DHT22;10066;48.108;11.448;2023-09-12T05:16:28;15.20;99.90
19813;DHT22;10066;48.108;11.448;2023-09-12T05:18:55;15.20;99.90
19813;DHT22;10066;48.108;11.448;2023-09-12T05:21:22;15.20;99.90
19813;DHT22;10066;48.108;11.448;2023-09-12T05:23:49;15.20;99.90
19813;DHT22;10066;48.108;11.448;2023-09-12T05:26:16;15.20;99.90
19813;DHT22;10066;48.108;11.448;2023-09-12T05:28:45;15.30;99.90
19813;DHT22;10066;48.108;11.448;2023-09-12T05:31:12;15.30;99.90
19813;DHT22;10066;48.108;11.448;2023-09-12T05:33:38;15.70;99.90
19813;DHT22;10066;48.108;11.448;2023-09-12T05:36:05;16.50;99.90
19813;DHT22;10066;48.108;11.448;2023-09-12T05:38:32;17.20;99.90
19813;DHT22;10066;48.108;11.448;2023-09-12T05:40:59;17.50;99.90
19813;DHT22;10066;48.108;11.448;2023-09-12T05:43:27;17.50;99.90
19813;DHT22;10066;48.108;11.448;2023-09-12T05:45:55;17.40;99.90
19813;DHT22;10066;48.108;11.448;2023-09-12T05:48:23;17.30;99.90
19813;DHT22;10066;48.108;11.448;2023-09-12T05:50:50;17.40;99.90
19813;DHT22;10066;48.108;11.448;2023-09-12T05:53:17;17.70;99.90
19813;DHT22;10066;48.108;11.448;2023-09-12T05:55:44;17.50;99.90
19813;DHT22;10066;48.108;11.448;2023-09-12T05:58:11;17.40;99.90
19813;DHT22;10066;48.108;11.448;2023-09-12T06:00:38;17.30;99.90
19813;DHT22;10066;48.108;11.448;2023-09-12T06:03:07;17.20;99.90
19813;DHT22;10066;48.108;11.448;2023-09-12T06:05:33;17.20;99.90
19813;DHT22;10066;48.108;11.448;2023-09-12T06:08:00;17.20;99.90
19813;DHT22;10066;48.108;11.448;2023-09-12T06:10:27;17.20;99.90
19813;DHT22;10066;48.108;11.448;2023-09-12T06:12:54;17.20;99.90
19813;DHT22;10066;48.108;11.448;2023-09-12T06:15:21;17.30;99.90
19813;DHT22;10066;48.108;11.448;2023-09-12T06:17:48;17.30;99.90
19813;DHT22;10066;48.108;11.448;2023-09-12T06:20:16;17.40;99.90
19813;DHT22;10066;48.108;11.448;2023-09-12T06:22:45;17.50;99.90
19813;DHT22;10066;48.108;11.448;2023-09-12T06:25:12;17.50;99.90
19813;DHT22;10066;48.108;11.448;2023-09-12T06:27:38;17.60;99.90
19813;DHT22;10066;48.108;11.448;2023-09-12T06:30:06;17.70;99.90
19813;DHT22;10066;48.108;11.448;2023-09-12T06:32:33;17.80;99.90
19813;DHT22;10066;48.108;11.448;2023-09-12T06:35:00;18.00;99.90
19813;DHT22;10066;48.108;11.448;2023-09-12T06:37:32;18.10;99.90
19813;DHT22;10066;48.108;11.448;2023-09-12T06:39:59;18.20;99.90
19813;DHT22;10066;48.108;11.448;2023-09-12T06:42:27;18.40;99.90
19813;DHT22;10066;48.108;11.448;2023-09-12T06:44:55;18.50;99.90
19813;DHT22;10066;48.108;11.448;2023-09-12T06:47:22;18.70;99.90
19813;DHT22;10066;48.108;11.448;2023-09-12T06:49:49;18.80;99.90
19813;DHT22;10066;48.108;11.448;2023-09-12T06:52:16;18.90;99.90
19813;DHT22;10066;48.108;11.448;2023-09-12T06:54:44;19.00;99.90
19813;DHT22;10066;48.108;11.448;2023-09-12T06:57:11;19.20;99.90
19813;DHT22;10066;48.108;11.448;2023-09-12T06:59:38;19.30;99.90
19813;DHT22;10066;48.108;11.448;2023-09-12T07:02:05;19.40;99.90
19813;DHT22;10066;48.108;11.448;2023-09-12T07:04:32;19.60;99.90
19813;DHT22;10066;48.108;11.448;2023-09-12T07:06:59;19.70;99.90
19813;DHT22;10066;48.108;11.448;2023-09-12T07:09:27;19.80;99.90
19813;DHT22;10066;48.108;11.448;2023-09-12T07:14:22;20.10;99.90
19813;DHT22;10066;48.108;11.448;2023-09-12T07:16:51;20.20;99.90
19813;DHT22;10066;48.108;11.448;2023-09-12T07:19:18;20.30;99.90
19813;DHT22;10066;48.108;11.448;2023-09-12T07:21:45;20.40;99.90
19813;DHT22;10066;48.108;11.448;2023-09-12T07:24:12;20.60;99.90
19813;DHT22;10066;48.108;11.448;2023-09-12T07:26:40;20.70;99.90
19813;DHT22;10066;48.108;11.448;2023-09-12T07:29:09;20.80;99.90
19813;DHT22;10066;48.108;11.448;2023-09-12T07:31:36;20.90;99.90
19813;DHT22;10066;48.108;11.448;2023-09-12T07:34:03;21.00;99.90
19813;DHT22;10066;48.108;11.448;2023-09-12T07:36:30;21.10;99.90
19813;DHT22;10066;48.108;11.448;2023-09-12T07:38:57;21.20;99.90
19813;DHT22;10066;48.108;11.448;2023-09-12T07:41:24;21.40;99.90
19813;DHT22;10066;48.108;11.448;2023-09-12T07:43:51;21.40;99.90
19813;DHT22;10066;48.108;11.448;2023-09-12T07:46:20;21.60;99.90
19813;DHT22;10066;48.108;11.448;2023-09-12T07:48:47;21.70;99.90
19813;DHT22;10066;48.108;11.448;2023-09-12T07:51:15;21.90;99.90
19813;DHT22;10066;48.108;11.448;2023-09-12T07:53:43;22.00;99.90
19813;DHT22;10066;48.108;11.448;2023-09-12T07:56:10;22.20;99.90
19813;DHT22;10066;48.108;11.448;2023-09-12T07:58:37;22.30;99.90
19813;DHT22;10066;48.108;11.448;2023-09-12T08:01:05;22.40;99.90
19813;DHT22;10066;48.108;11.448;2023-09-12T08:03:35;22.60;99.90
19813;DHT22;10066;48.108;11.448;2023-09-12T08:06:04;22.70;99.90
19813;DHT22;10066;48.108;11.448;2023-09-12T08:08:31;22.70;99.90
19813;DHT22;10066;48.108;11.448;2023-09-12T08:10:58;22.90;99.90
19813;DHT22;10066;48.108;11.448;2023-09-12T08:13:26;23.00;99.90
19813;DHT22;10066;48.108;11.448;2023-09-12T08:15:54;23.10;99.90
19813;DHT22;10066;48.108;11.448;2023-09-12T08:18:25;23.30;99.90
19813;DHT22;10066;48.108;11.448;2023-09-12T08:20:54;23.40;99.90
19813;DHT22;10066;48.108;11.448;2023-09-12T08:23:21;23.50;99.90
19813;DHT22;10066;48.108;11.448;2023-09-12T08:25:48;23.60;99.90
19813;DHT22;10066;48.108;11.448;2023-09-12T08:28:15;23.70;99.90
19813;DHT22;10066;48.108;11.448;2023-09-12T08:30:43;23.90;99.90
19813;DHT22;10066;48.108;11.448;2023-09-12T08:33:10;24.00;99.90
19813;DHT22;10066;48.108;11.448;2023-09-12T08:35:37;24.10;99.90
19813;DHT22;10066;48.108;11.448;2023-09-12T08:38:06;24.20;99.90
19813;DHT22;10066;48.108;11.448;2023-09-12T08:40:35;24.30;99.90
19813;DHT22;10066;48.108;11.448;2023-09-12T08:43:02;24.40;99.90
19813;DHT22;10066;48.108;11.448;2023-09-12T08:45:30;24.50;99.90
19813;DHT22;10066;48.108;11.448;2023-09-12T08:47:59;24.60;99.90
19813;DHT22;10066;48.108;11.448;2023-09-12T08:50:27;24.70;99.90
19813;DHT22;10066;48.108;11.448;2023-09-12T08:52:56;24.80;99.90
19813;DHT22;10066;48.108;11.448;2023-09-12T08:55:25;24.90;99.90
19813;DHT22;10066;48.108;11.448;2023-09-12T08:57:53;24.90;99.90
19813;DHT22;10066;48.108;11.448;2023-09-12T09:00:23;25.00;99.90
19813;DHT22;10066;48.108;11.448;2023-09-12T09:02:50;25.10;99.90
19813;DHT22;10066;48.108;11.448;2023-09-12T09:05:20;25.20;99.90
19813;DHT22;10066;48.108;11.448;2023-09-12T09:07:48;25.20;99.90
19813;DHT22;10066;48.108;11.448;2023-09-12T09:10:18;25.30;99.90
19813;DHT22;10066;48.108;11.448;2023-09-12T09:12:47;25.40;99.90
19813;DHT22;10066;48.108;11.448;2023-09-12T09:15:20;25.50;99.90
19813;DHT22;10066;48.108;11.448;2023-09-12T09:17:48;25.60;99.90
19813;DHT22;10066;48.108;11.448;2023-09-12T09:20:25;25.70;99.90
19813;DHT22;10066;48.108;11.448;2023-09-12T09:22:57;25.80;99.90
19813;DHT22;10066;48.108;11.448;2023-09-12T09:25:24;25.80;99.90
19813;DHT22;10066;48.108;11.448;2023-09-12T09:27:53;25.90;99.90
19813;DHT22;10066;48.108;11.448;2023-09-12T09:30:39;26.00;99.90
19813;DHT22;10066;48.108;11.448;2023-09-12T09:33:07;26.10;99.90
19813;DHT22;10066;48.108;11.448;2023-09-12T09:35:34;26.20;99.90
19813;DHT22;10066;48.108;11.448;2023-09-12T09:38:02;26.20;99.90
19813;DHT22;10066;48.108;11.448;2023-09-12T09:40:29;26.30;99.90
19813;DHT22;10066;48.108;11.448;2023-09-12T09:42:59;26.40;99.90
19813;DHT22;10066;48.108;11.448;2023-09-12T09:45:28;26.50;99.90
19813;DHT22;10066;48.108;11.448;2023-09-12T09:47:57;26.50;99.90
19813;DHT22;10066;48.108;11.448;2023-09-12T09:50:25;26.60;99.90
19813;DHT22;10066;48.108;11.448;2023-09-12T09:52:54;26.70;99.90
19813;DHT22;10066;48.108;11.448;2023-09-12T09:55:23;26.80;99.90
19813;DHT22;10066;48.108;11.448;2023-09-12T09:57:50;26.90;99.90
19813;DHT22;10066;48.108;11.448;2023-09-12T10:00:22;27.00;99.90
19813;DHT22;10066;48.108;11.448;2023-09-12T10:02:51;27.00;99.90
19813;DHT22;10066;48.108;11.448;2023-09-12T10:05:19;27.10;99.90
19813;DHT22;10066;48.108;11.448;2023-09-12T10:07:48;27.10;99.90
19813;DHT22;10066;48.108;11.448;2023-09-12T10:10:17;27.20;99.90
19813;DHT22;10066;48.108;11.448;2023-09-12T10:12:49;27.20;99.90
19813;DHT22;10066;48.108;11.448;2023-09-12T10:15:18;27.30;99.90
19813;DHT22;10066;48.108;11.448;2023-09-12T10:17:52;27.30;99.90
19813;DHT22;10066;48.108;11.448;2023-09-12T10:20:25;27.40;99.90
19813;DHT22;10066;48.108;11.448;2023-09-12T10:23:00;27.40;99.90
19813;DHT22;10066;48.108;11.448;2023-09-12T10:25:35;27.50;99.90
19813;DHT22;10066;48.108;11.448;2023-09-12T10:28:04;27.50;99.90
19813;DHT22;10066;48.108;11.448;2023-09-12T10:30:33;27.60;99.90
19813;DHT22;10066;48.108;11.448;2023-09-12T10:33:02;27.60;99.90
19813;DHT22;10066;48.108;11.448;2023-09-12T10:35:30;27.70;99.90
19813;DHT22;10066;48.108;11.448;2023-09-12T10:38:01;27.80;99.90
19813;DHT22;10066;48.108;11.448;2023-09-12T10:40:31;27.80;99.90
19813;DHT22;10066;48.108;11.448;2023-09-12T10:43:00;27.90;99.90
19813;DHT22;10066;48.108;11.448;2023-09-12T10:45:30;27.90;99.90
19813;DHT22;10066;48.108;11.448;2023-09-12T10:47:58;28.00;99.90
19813;DHT22;10066;48.108;11.448;2023-09-12T10:50:27;28.00;99.90
19813;DHT22;10066;48.108;11.448;2023-09-12T10:52:54;28.00;99.90
19813;DHT22;10066;48.108;11.448;2023-09-12T10:55:21;28.00;99.90
19813;DHT22;10066;48.108;11.448;2023-09-12T10:58:00;28.10;99.90
19813;DHT22;10066;48.108;11.448;2023-09-12T11:00:28;28.10;99.90
19813;DHT22;10066;48.108;11.448;2023-09-12T11:02:58;28.20;99.90
19813;DHT22;10066;48.108;11.448;2023-09-12T11:05:37;28.20;99.90
19813;DHT22;10066;48.108;11.448;2023-09-12T11:08:04;28.30;99.90
19813;DHT22;10066;48.108;11.448;2023-09-12T11:10:31;28.30;99.90
19813;DHT22;10066;48.108;11.448;2023-09-12T11:12:59;28.40;99.90
19813;DHT22;10066;48.108;11.448;2023-09-12T11:15:27;28.50;99.90
19813;DHT22;10066;48.108;11.448;2023-09-12T11:18:01;28.50;99.90
19813;DHT22;10066;48.108;11.448;2023-09-12T11:20:51;28.50;99.90
19813;DHT22;10066;48.108;11.448;2023-09-12T11:23:19;28.50;99.90
19813;DHT22;10066;48.108;11.448;2023-09-12T11:25:47;28.50;99.90
19813;DHT22;10066;48.108;11.448;2023-09-12T11:28:14;28.50;99.90
19813;DHT22;10066;48.108;11.448;2023-09-12T11:30:56;28.50;99.90
19813;DHT22;10066;48.108;11.448;2023-09-12T11:33:24;28.50;99.90
19813;DHT22;10066;48.108;11.448;2023-09-12T11:35:54;28.50;99.90
19813;DHT22;10066;48.108;11.448;2023-09-12T11:38:27;28.50;99.90
19813;DHT22;10066;48.108;11.448;2023-09-12T11:40:55;28.50;99.00
19813;DHT22;10066;48.108;11.448;2023-09-12T11:43:23;28.40;99.50
19813;DHT22;10066;48.108;11.448;2023-09-12T11:45:51;28.40;99.90
19813;DHT22;10066;48.108;11.448;2023-09-12T11:48:18;28.50;99.60
19813;DHT22;10066;48.108;11.448;2023-09-12T11:50:51;28.50;99.30
19813;DHT22;10066;48.108;11.448;2023-09-12T11:53:20;28.60;99.50
19813;DHT22;10066;48.108;11.448;2023-09-12T11:55:48;28.60;99.90
19813;DHT22;10066;48.108;11.448;2023-09-12T11:58:18;28.60;99.90
19813;DHT22;10066;48.108;11.448;2023-09-12T12:00:45;28.60;99.50
19813;DHT22;10066;48.108;11.448;2023-09-12T12:03:13;28.60;99.10
19813;DHT22;10066;48.108;11.448;2023-09-12T12:05:40;28.60;98.50
19813;DHT22;10066;48.108;11.448;2023-09-12T12:08:08;28.70;97.80
19813;DHT22;10066;48.108;11.448;2023-09-12T12:10:36;28.70;97.70
19813;DHT22;10066;48.108;11.448;2023-09-12T12:13:04;28.80;97.60
19813;DHT22;10066;48.108;11.448;2023-09-12T12:15:31;28.90;97.20
19813;DHT22;10066;48.108;11.448;2023-09-12T12:17:59;29.10;97.20
19813;DHT22;10066;48.108;11.448;2023-09-12T12:20:26;29.20;96.60
19813;DHT22;10066;48.108;11.448;2023-09-12T12:22:55;29.30;96.60
19813;DHT22;10066;48.108;11.448;2023-09-12T12:25:22;29.30;96.90
19813;DHT22;10066;48.108;11.448;2023-09-12T12:27:51;29.40;96.80
19813;DHT22;10066;48.108;11.448;2023-09-12T12:30:20;29.40;96.50
19813;DHT22;10066;48.108;11.448;2023-09-12T12:32:47;29.40;96.40
19813;DHT22;10066;48.108;11.448;2023-09-12T12:35:20;29.40;96.50
19813;DHT22;10066;48.108;11.448;2023-09-12T12:37:48;29.30;96.40
19813;DHT22;10066;48.108;11.448;2023-09-12T12:40:16;29.30;96.30
19813;DHT22;10066;48.108;11.448;2023-09-12T12:42:44;29.30;95.80
19813;DHT22;10066;48.108;11.448;2023-09-12T12:45:16;29.30;95.20
19813;DHT22;10066;48.108;11.448;2023-09-12T12:47:43;29.30;94.70
19813;DHT22;10066;48.108;11.448;2023-09-12T12:50:11;29.30;95.40
19813;DHT22;10066;48.108;11.448;2023-09-12T12:52:38;29.20;95.40
19813;DHT22;10066;48.108;11.448;2023-09-12T12:55:06;29.20;95.20
19813;DHT22;10066;48.108;11.448;2023-09-12T12:57:36;29.10;94.90
19813;DHT22;10066;48.108;11.448;2023-09-12T13:00:06;29.10;94.90
19813;DHT22;10066;48.108;11.448;2023-09-12T13:02:35;29.00;94.80
19813;DHT22;10066;48.108;11.448;2023-09-12T13:05:02;29.00;94.90
19813;DHT22;10066;48.108;11.448;2023-09-12T13:07:29;29.00;94.50
19813;DHT22;10066;48.108;11.448;2023-09-12T13:09:55;29.00;94.20
19813;DHT22;10066;48.108;11.448;2023-09-12T13:12:22;29.00;94.60
19813;DHT22;10066;48.108;11.448;2023-09-12T13:14:49;29.00;94.40
19813;DHT22;10066;48.108;11.448;2023-09-12T13:17:16;29.00;93.40
19813;DHT22;10066;48.108;11.448;2023-09-12T13:19:45;29.00;92.60
19813;DHT22;10066;48.108;11.448;2023-09-12T13:22:12;29.00;92.20
19813;DHT22;10066;48.108;11.448;2023-09-12T13:24:39;29.00;91.40
19813;DHT22;10066;48.108;11.448;2023-09-12T13:27:05;28.90;91.30
19813;DHT22;10066;48.108;11.448;2023-09-12T13:29:32;28.90;91.10
19813;DHT22;10066;48.108;11.448;2023-09-12T13:31:59;28.90;91.10
19813;DHT22;10066;48.108;11.448;2023-09-12T13:34:26;28.90;90.70
19813;DHT22;10066;48.108;11.448;2023-09-12T13:36:54;28.90;91.20
19813;DHT22;10066;48.108;11.448;2023-09-12T13:39:22;28.90;91.20
19813;DHT22;10066;48.108;11.448;2023-09-12T13:41:49;28.90;91.20
19813;DHT22;10066;48.108;11.448;2023-09-12T13:44:16;28.90;90.80
19813;DHT22;10066;48.108;11.448;2023-09-12T13:46:43;28.90;90.80
19813;DHT22;10066;48.108;11.448;2023-09-12T13:49:12;28.80;90.10
19813;DHT22;10066;48.108;11.448;2023-09-12T13:51:39;28.80;89.10
19813;DHT22;10066;48.108;11.448;2023-09-12T13:54:08;28.80;89.30
19813;DHT22;10066;48.108;11.448;2023-09-12T13:56:40;28.80;89.40
19813;DHT22;10066;48.108;11.448;2023-09-12T13:59:07;28.80;88.00
19813;DHT22;10066;48.108;11.448;2023-09-12T14:01:33;28.80;86.70
19813;DHT22;10066;48.108;11.448;2023-09-12T14:04:00;28.70;86.10
19813;DHT22;10066;48.108;11.448;2023-09-12T14:06:32;28.70;90.30
19813;DHT22;10066;48.108;11.448;2023-09-12T14:08:59;28.70;92.90
19813;DHT22;10066;48.108;11.448;2023-09-12T14:11:28;28.60;94.20
19813;DHT22;10066;48.108;11.448;2023-09-12T14:13:55;28.60;95.30
19813;DHT22;10066;48.108;11.448;2023-09-12T14:16:22;28.50;95.50
19813;DHT22;10066;48.108;11.448;2023-09-12T14:18:49;28.40;95.50
19813;DHT22;10066;48.108;11.448;2023-09-12T14:21:16;28.40;95.90
19813;DHT22;10066;48.108;11.448;2023-09-12T14:23:43;28.30;96.00
19813;DHT22;10066;48.108;11.448;2023-09-12T14:26:09;28.30;96.00
19813;DHT22;10066;48.108;11.448;2023-09-12T14:28:38;28.30;96.20
19813;DHT22;10066;48.108;11.448;2023-09-12T14:31:04;28.30;96.60
19813;DHT22;10066;48.108;11.448;2023-09-12T14:33:38;28.20;96.90
19813;DHT22;10066;48.108;11.448;2023-09-12T14:36:05;28.20;97.10
19813;DHT22;10066;48.108;11.448;2023-09-12T14:38:32;28.20;96.90
19813;DHT22;10066;48.108;11.448;2023-09-12T14:40:59;28.10;96.70
19813;DHT22;10066;48.108;11.448;2023-09-12T14:43:26;28.10;96.90
19813;DHT22;10066;48.108;11.448;2023-09-12T14:45:55;28.10;96.90
19813;DHT22;10066;48.108;11.448;2023-09-12T14:48:21;28.00;97.20
19813;DHT22;10066;48.108;11.448;2023-09-12T14:50:48;28.00;97.00
19813;DHT22;10066;48.108;11.448;2023-09-12T14:53:16;28.00;97.00
19813;DHT22;10066;48.108;11.448;2023-09-12T14:55:43;28.00;96.80
19813;DHT22;10066;48.108;11.448;2023-09-12T14:58:11;28.00;97.00
19813;DHT22;10066;48.108;11.448;2023-09-12T15:00:37;28.10;97.50
19813;DHT22;10066;48.108;11.448;2023-09-12T15:03:06;28.10;97.50
19813;DHT22;10066;48.108;11.448;2023-09-12T15:05:34;28.20;97.60
19813;DHT22;10066;48.108;11.448;2023-09-12T15:08:01;28.20;97.40
19813;DHT22;10066;48.108;11.448;2023-09-12T15:10:28;28.20;97.40
19813;DHT22;10066;48.108;11.448;2023-09-12T15:12:55;28.20;97.50
19813;DHT22;10066;48.108;11.448;2023-09-12T15:15:21;28.10;97.40
19813;DHT22;10066;48.108;11.448;2023-09-12T15:17:48;28.10;97.40
19813;DHT22;10066;48.108;11.448;2023-09-12T15:20:16;28.10;97.40
19813;DHT22;10066;48.108;11.448;2023-09-12T15:22:43;28.10;97.40
19813;DHT22;10066;48.108;11.448;2023-09-12T15:25:10;28.00;97.70